LEVT

Vitoria/Foronda Airport

Airport
ICAO code
LEVT
IATA Code
VIT
Summary
ICAO Region
EUR
ICAO Territory
Location

, Pais Vasco

Serving
Vitoria
Elevation
1682 ft
Coordinates
42° 52' 58" N , 2° 43' 28" W
Metar
LEVT 151600Z 02013KT 350V060 9999 FEW030 18/10 Q1016

Runways

Designator Length Width Surface Rops
4/22 3500 45 CON Yes/Yes

Airport map

Aerial View

SKYbrary Partners:

Safety knowledge contributed by: